Terminal Aerodrome Forecast
Issued by NWS

Home | Current Version | Previous Version | Text Only | Print | Product List | Glossary On
Versions: 1 2 3 4 5 6 7 8 9 10 11 12 13 14 15 16 17 18 19 20 21 22 23 24 25 26 27 28 29 30
160
FTUS43 KMQT 290312 AAC
TAFIWD
TAF AMD
KIWD 290312Z 2903/2924 VRB03KT 1/4SM FG VCTS OVC002CB
      TEMPO 2903/2905 2SM -TSRA BR OVC015CB
     FM290500 00000KT 1 1/2SM BR OVC003
     FM291600 25006KT P6SM VCSH OVC008
     FM292100 24006KT 3SM -RA BR OVC004=

USA.gov is the U.S. government's official web portal to all federal, state and local government web resources and services.